createdAt,value
2022-08-17T00:00:42.830Z,8.25
2022-08-17T00:01:51.716Z,7.03
2022-08-17T00:03:14.452Z,10.50
2022-08-17T00:04:18.092Z,7.35
2022-08-17T00:05:20.177Z,8.95
2022-08-17T00:06:28.898Z,10.25
2022-08-17T00:07:30.493Z,6.00
2022-08-17T00:08:35.654Z,6.47
2022-08-17T00:09:37.578Z,8.52
2022-08-17T00:10:39.858Z,10.10
2022-08-17T00:11:43.833Z,8.95
2022-08-17T00:13:18.982Z,6.53
2022-08-17T00:14:20.585Z,9.90
2022-08-17T00:15:23.895Z,6.25
2022-08-17T00:16:55.341Z,11.15
2022-08-17T00:17:53.426Z,6.10
2022-08-17T00:19:07.834Z,8.07
2022-08-17T00:20:12.168Z,7.75
2022-08-17T00:21:15.836Z,8.05
2022-08-17T00:22:34.399Z,7.78
2022-08-17T00:23:38.567Z,5.75
2022-08-17T00:24:46.139Z,6.60
2022-08-17T00:25:48.145Z,7.10
2022-08-17T00:26:49.818Z,6.05
2022-08-17T00:27:51.428Z,7.55
2022-08-17T00:28:53.298Z,7.28
2022-08-17T00:29:54.901Z,9.98
2022-08-17T00:30:56.522Z,8.98
2022-08-17T00:31:58.122Z,6.22
2022-08-17T00:33:14.483Z,6.03
2022-08-17T00:34:19.020Z,10.63
2022-08-17T00:35:23.732Z,6.60
2022-08-17T00:36:25.575Z,12.15
2022-08-17T00:37:27.389Z,5.75
2022-08-17T00:38:30.123Z,7.32
2022-08-17T00:39:31.818Z,6.60
2022-08-17T00:40:44.595Z,6.65
2022-08-17T00:41:46.807Z,6.18
2022-08-17T00:42:49.356Z,7.35
2022-08-17T00:43:54.965Z,8.00
2022-08-17T00:44:56.835Z,8.73
2022-08-17T00:46:00.851Z,7.38
2022-08-17T00:47:02.475Z,6.22
2022-08-17T00:48:04.146Z,7.80
2022-08-17T00:49:15.820Z,10.35
2022-08-17T00:50:19.308Z,7.60
2022-08-17T00:51:30.001Z,7.90
2022-08-17T00:52:37.537Z,6.93
2022-08-17T00:53:44.306Z,7.72
2022-08-17T00:54:49.141Z,6.13
2022-08-17T00:55:51.010Z,6.57
2022-08-17T00:56:56.821Z,7.30
2022-08-17T00:58:01.767Z,7.97
2022-08-17T00:59:06.630Z,8.32
2022-08-17T01:00:13.822Z,7.10
2022-08-17T01:01:21.543Z,5.35
2022-08-17T01:02:24.443Z,6.95
2022-08-17T01:03:26.683Z,7.15
2022-08-17T01:04:30.182Z,9.45
2022-08-17T01:05:34.402Z,6.75
2022-08-17T01:06:36.087Z,7.18
2022-08-17T01:07:38.719Z,5.88
2022-08-17T01:08:40.656Z,7.68
2022-08-17T01:09:44.133Z,9.77
2022-08-17T01:10:59.735Z,8.13
2022-08-17T01:12:06.640Z,5.55
2022-08-17T01:13:11.770Z,7.47
2022-08-17T01:14:13.645Z,6.00
2022-08-17T01:15:16.214Z,9.75
2022-08-17T01:16:28.675Z,8.48
2022-08-17T01:17:30.462Z,8.32
2022-08-17T01:18:33.037Z,8.05
2022-08-17T01:19:39.141Z,5.80
2022-08-17T01:20:53.794Z,6.82
2022-08-17T01:22:05.935Z,10.25
2022-08-17T01:23:07.591Z,7.57
2022-08-17T01:24:09.829Z,8.90
2022-08-17T01:25:12.778Z,7.40
2022-08-17T01:26:14.707Z,8.25
2022-08-17T01:27:18.487Z,8.50
2022-08-17T01:28:33.489Z,8.77
2022-08-17T01:29:51.186Z,8.68
2022-08-17T01:30:58.378Z,6.60
2022-08-17T01:32:04.149Z,6.40
2022-08-17T01:33:05.934Z,7.53
2022-08-17T01:34:11.578Z,10.95
2022-08-17T01:35:14.446Z,7.38
2022-08-17T01:36:16.103Z,6.38
2022-08-17T01:37:20.078Z,7.60
2022-08-17T01:38:27.211Z,7.35
2022-08-17T01:39:31.866Z,7.10
2022-08-17T01:40:39.006Z,6.80
2022-08-17T01:41:41.170Z,7.70
2022-08-17T01:42:48.576Z,8.57
2022-08-17T01:44:03.757Z,11.50
2022-08-17T01:45:11.266Z,7.30
2022-08-17T01:46:21.868Z,7.18
2022-08-17T01:47:23.783Z,8.23
2022-08-17T01:48:31.217Z,7.72
2022-08-17T01:49:32.946Z,9.00
2022-08-17T01:50:37.918Z,10.90
2022-08-17T01:51:39.868Z,8.55
2022-08-17T01:52:44.123Z,11.88
2022-08-17T01:53:52.441Z,12.07
2022-08-17T01:54:54.918Z,8.07
2022-08-17T01:56:01.205Z,10.48
2022-08-17T01:57:02.857Z,8.57
2022-08-17T01:58:09.579Z,9.15
2022-08-17T01:59:12.009Z,8.18
2022-08-17T02:00:14.967Z,9.82
2022-08-17T02:01:23.518Z,7.40
2022-08-17T02:02:30.316Z,7.47
2022-08-17T02:03:34.538Z,6.93
2022-08-17T02:04:36.236Z,9.20
2022-08-17T02:05:37.966Z,9.00
2022-08-17T02:06:45.294Z,7.40
2022-08-17T02:07:59.521Z,8.32
2022-08-17T02:09:03.826Z,10.40
2022-08-17T02:10:06.603Z,8.45
2022-08-17T02:11:22.122Z,10.60
2022-08-17T02:12:38.358Z,9.30
2022-08-17T02:13:42.258Z,8.65
2022-08-17T02:14:43.997Z,10.13
2022-08-17T02:15:46.245Z,6.85
2022-08-17T02:16:47.867Z,9.73
2022-08-17T02:17:49.489Z,8.82
2022-08-17T02:18:56.548Z,9.52
2022-08-17T02:19:58.155Z,10.25
2022-08-17T02:21:00.399Z,7.68
2022-08-17T02:22:01.999Z,7.45
2022-08-17T02:23:04.998Z,7.78
2022-08-17T02:24:13.556Z,6.07
2022-08-17T02:25:18.209Z,8.60
2022-08-17T02:26:25.790Z,11.25
2022-08-17T02:27:28.757Z,8.82
2022-08-17T02:28:31.015Z,6.80
2022-08-17T02:29:32.798Z,8.18
2022-08-17T02:31:01.383Z,8.05
2022-08-17T02:31:58.593Z,9.65
2022-08-17T02:33:04.288Z,9.85
2022-08-17T02:34:08.265Z,5.38
2022-08-17T02:35:10.249Z,8.63
2022-08-17T02:36:13.435Z,8.63
2022-08-17T02:37:17.849Z,9.15
2022-08-17T02:38:19.474Z,10.48
2022-08-17T02:39:21.129Z,8.32
2022-08-17T02:40:35.788Z,7.22
2022-08-17T02:41:39.391Z,6.78
2022-08-17T02:42:43.289Z,9.05
2022-08-17T02:43:45.288Z,9.05
2022-08-17T02:44:46.949Z,8.80
2022-08-17T02:45:48.548Z,7.38
2022-08-17T02:46:50.275Z,14.27
2022-08-17T02:47:52.658Z,10.57
2022-08-17T02:48:54.626Z,8.23
2022-08-17T02:49:56.227Z,9.13
2022-08-17T02:50:57.914Z,6.85
2022-08-17T02:52:03.746Z,11.50
2022-08-17T02:53:05.714Z,7.32
2022-08-17T02:54:38.951Z,7.38
2022-08-17T02:55:34.254Z,11.60
2022-08-17T02:56:35.837Z,9.02
2022-08-17T02:57:38.076Z,10.90
2022-08-17T02:58:39.714Z,9.63
2022-08-17T02:59:45.438Z,10.88
2022-08-17T03:00:50.040Z,10.02
2022-08-17T03:01:52.109Z,7.72
2022-08-17T03:02:54.135Z,8.35
2022-08-17T03:03:56.382Z,9.90
2022-08-17T03:04:57.962Z,7.85
2022-08-17T03:05:59.582Z,8.50
2022-08-17T03:07:01.270Z,10.20
2022-08-17T03:08:03.608Z,10.30
2022-08-17T03:09:05.262Z,8.95
2022-08-17T03:10:08.472Z,10.23
2022-08-17T03:11:10.491Z,14.25
2022-08-17T03:12:14.207Z,10.07
2022-08-17T03:13:15.928Z,9.75
2022-08-17T03:14:18.778Z,8.20
2022-08-17T03:15:31.503Z,10.10
2022-08-17T03:16:33.195Z,8.43
2022-08-17T03:17:36.310Z,9.45
2022-08-17T03:18:37.873Z,7.38
2022-08-17T03:19:42.986Z,9.05
2022-08-17T03:20:44.755Z,9.30
2022-08-17T03:21:46.341Z,16.23
2022-08-17T03:23:02.894Z,11.00
2022-08-17T03:24:08.779Z,9.57
2022-08-17T03:25:15.876Z,10.23
2022-08-17T03:26:21.121Z,10.25
2022-08-17T03:27:22.976Z,9.30
2022-08-17T03:28:25.669Z,9.50
2022-08-17T03:29:27.284Z,10.75
2022-08-17T03:30:29.362Z,12.30
2022-08-17T03:31:31.468Z,9.95
2022-08-17T03:32:39.168Z,8.77
2022-08-17T03:33:40.775Z,10.95
2022-08-17T03:34:42.858Z,10.18
2022-08-17T03:35:44.949Z,10.18
2022-08-17T03:36:46.535Z,10.77
2022-08-17T03:37:48.392Z,8.98
2022-08-17T03:39:01.594Z,15.18
2022-08-17T03:40:05.262Z,10.43
2022-08-17T03:41:07.119Z,11.18
2022-08-17T03:42:31.845Z,8.45
2022-08-17T03:43:34.836Z,12.07
2022-08-17T03:44:36.461Z,7.90
2022-08-17T03:45:57.252Z,8.63
2022-08-17T03:47:17.494Z,9.57
2022-08-17T03:48:37.521Z,9.85
2022-08-17T03:49:57.645Z,9.27
2022-08-17T03:51:17.728Z,8.90
2022-08-17T03:52:37.909Z,8.77
2022-08-17T03:54:09.667Z,5.95
2022-08-17T03:55:36.307Z,10.07
2022-08-17T03:56:44.718Z,9.60
2022-08-17T03:57:46.399Z,7.30
2022-08-17T03:58:48.389Z,10.32
2022-08-17T03:59:51.054Z,7.97
2022-08-17T04:00:53.276Z,9.30
2022-08-17T04:01:57.128Z,7.35
2022-08-17T04:02:58.723Z,8.85
2022-08-17T04:04:00.315Z,9.85
2022-08-17T04:05:02.638Z,8.52
2022-08-17T04:06:05.539Z,10.43
2022-08-17T04:07:07.820Z,9.23
2022-08-17T04:08:10.372Z,8.98
2022-08-17T04:09:12.472Z,8.73
2022-08-17T04:10:14.172Z,8.97
2022-08-17T04:11:15.740Z,9.07
2022-08-17T04:12:19.512Z,8.25
2022-08-17T04:13:24.196Z,9.65
2022-08-17T04:14:27.277Z,9.73
2022-08-17T04:15:29.669Z,15.48
2022-08-17T04:16:32.078Z,11.60
2022-08-17T04:17:33.710Z,12.05
2022-08-17T04:18:35.294Z,10.38
2022-08-17T04:19:37.081Z,9.40
2022-08-17T04:20:38.709Z,14.20
2022-08-17T04:21:40.512Z,10.05
2022-08-17T04:23:05.778Z,7.47
2022-08-17T04:24:07.964Z,10.85
2022-08-17T04:25:17.913Z,13.15
2022-08-17T04:26:52.957Z,8.88
2022-08-17T04:27:41.961Z,11.35
2022-08-17T04:28:44.446Z,9.68
2022-08-17T04:29:54.995Z,10.65
2022-08-17T04:30:57.473Z,13.07
2022-08-17T04:31:59.114Z,9.52
2022-08-17T04:33:06.104Z,9.80
2022-08-17T04:34:12.755Z,9.82
2022-08-17T04:35:30.329Z,9.32
2022-08-17T04:36:33.821Z,13.25
2022-08-17T04:37:35.413Z,13.05
2022-08-17T04:38:39.581Z,12.02
2022-08-17T04:40:04.192Z,8.77
2022-08-17T04:41:25.625Z,9.82
2022-08-17T04:42:27.189Z,9.95
2022-08-17T04:43:31.087Z,6.75
2022-08-17T04:44:37.139Z,10.90
2022-08-17T04:45:54.896Z,14.38
2022-08-17T04:46:58.042Z,13.32
2022-08-17T04:48:00.808Z,10.63
2022-08-17T04:49:06.179Z,10.38
2022-08-17T04:50:08.316Z,8.40
2022-08-17T04:51:17.247Z,10.63
2022-08-17T04:52:29.663Z,12.63
2022-08-17T04:53:44.369Z,11.23
2022-08-17T04:54:45.942Z,13.82
2022-08-17T04:55:48.155Z,18.05
2022-08-17T04:56:50.009Z,12.07
2022-08-17T04:57:51.650Z,12.60
2022-08-17T04:58:56.049Z,12.75
2022-08-17T04:59:57.644Z,8.55
2022-08-17T05:00:59.394Z,10.35
2022-08-17T05:02:01.025Z,11.30
2022-08-17T05:03:02.951Z,10.55
2022-08-17T05:04:32.894Z,7.43
2022-08-17T05:05:38.930Z,8.60
2022-08-17T05:06:40.560Z,13.13
2022-08-17T05:07:42.815Z,7.57
2022-08-17T05:08:44.414Z,12.35
2022-08-17T05:09:46.235Z,9.18
2022-08-17T05:10:48.696Z,9.90
2022-08-17T05:11:50.336Z,9.55
2022-08-17T05:13:18.921Z,6.63
2022-08-17T05:14:20.558Z,14.32
2022-08-17T05:15:22.135Z,8.25
2022-08-17T05:16:27.189Z,10.98
2022-08-17T05:17:28.772Z,9.00
2022-08-17T05:18:30.921Z,7.30
2022-08-17T05:19:32.535Z,7.35
2022-08-17T05:20:36.109Z,7.93
2022-08-17T05:21:37.705Z,10.00
2022-08-17T05:22:49.432Z,10.45
2022-08-17T05:23:54.889Z,12.88
2022-08-17T05:24:57.819Z,10.25
2022-08-17T05:25:59.501Z,16.40
2022-08-17T05:27:05.059Z,9.77
2022-08-17T05:28:09.442Z,10.23
2022-08-17T05:29:11.169Z,8.13
2022-08-17T05:30:13.880Z,8.02
2022-08-17T05:31:16.555Z,9.02
2022-08-17T05:32:39.320Z,10.57
2022-08-17T05:33:46.153Z,13.55
2022-08-17T05:34:48.212Z,11.07
2022-08-17T05:35:53.181Z,8.80
2022-08-17T05:36:54.758Z,9.60
2022-08-17T05:37:57.737Z,11.57
2022-08-17T05:38:59.338Z,10.25
2022-08-17T05:40:00.996Z,10.18
2022-08-17T05:41:05.677Z,12.57
2022-08-17T05:42:07.324Z,9.75
2022-08-17T05:43:10.526Z,9.43
2022-08-17T05:44:12.118Z,12.80
2022-08-17T05:45:15.895Z,12.88
2022-08-17T05:46:28.020Z,13.30
2022-08-17T05:47:31.118Z,10.90
2022-08-17T05:48:40.532Z,10.95
2022-08-17T05:49:42.244Z,7.97
2022-08-17T05:51:02.217Z,12.50
2022-08-17T05:52:03.939Z,12.80
2022-08-17T05:53:40.513Z,13.25
2022-08-17T05:55:18.125Z,10.73
2022-08-17T05:56:38.471Z,16.40
2022-08-17T05:57:53.121Z,15.32
2022-08-17T05:59:22.056Z,15.57
2022-08-17T06:00:59.020Z,16.67
2022-08-17T06:02:19.269Z,11.10
2022-08-17T06:03:52.324Z,18.40
2022-08-17T06:05:01.962Z,17.25
2022-08-17T06:06:25.181Z,13.93
2022-08-17T06:08:05.865Z,16.90
2022-08-17T06:09:30.192Z,16.88
2022-08-17T06:10:43.751Z,14.55
2022-08-17T06:11:53.902Z,14.15
2022-08-17T06:13:09.696Z,17.10
2022-08-17T06:14:29.756Z,13.10
2022-08-17T06:15:37.123Z,16.45
2022-08-17T06:16:46.551Z,14.70
2022-08-17T06:17:52.618Z,11.93
2022-08-17T06:19:19.564Z,16.33
2022-08-17T06:20:21.537Z,9.70
2022-08-17T06:21:30.530Z,19.45
2022-08-17T06:22:37.984Z,12.60
2022-08-17T06:23:44.491Z,13.90
2022-08-17T06:24:59.059Z,15.55
2022-08-17T06:26:06.222Z,13.88
2022-08-17T06:27:18.449Z,13.65
2022-08-17T06:28:30.820Z,14.70
2022-08-17T06:29:38.749Z,16.15
2022-08-17T06:31:00.338Z,14.32
2022-08-17T06:32:04.945Z,11.85
2022-08-17T06:33:15.040Z,11.32
2022-08-17T06:34:16.993Z,12.52
2022-08-17T06:35:33.620Z,11.80
2022-08-17T06:37:03.703Z,11.88
2022-08-17T06:38:45.169Z,11.07
2022-08-17T06:40:07.915Z,11.63
2022-08-17T06:41:18.673Z,12.68
2022-08-17T06:43:02.776Z,9.73
2022-08-17T06:44:43.463Z,12.43
2022-08-17T06:45:51.718Z,12.25
2022-08-17T06:47:03.474Z,11.48
2022-08-17T06:48:25.131Z,17.35
2022-08-17T06:49:57.744Z,9.82
2022-08-17T06:51:07.219Z,8.80
2022-08-17T06:52:37.079Z,9.57
2022-08-17T06:54:05.728Z,12.48
2022-08-17T06:55:21.549Z,14.50
2022-08-17T06:56:53.060Z,13.63
2022-08-17T06:58:12.394Z,12.35
2022-08-17T06:59:21.884Z,11.27
2022-08-17T07:00:29.614Z,12.93
2022-08-17T07:01:35.875Z,11.07
2022-08-17T07:02:57.342Z,15.35
2022-08-17T07:04:11.910Z,12.75
2022-08-17T07:05:17.215Z,16.38
2022-08-17T07:06:22.700Z,15.85
2022-08-17T07:07:42.814Z,10.20
2022-08-17T07:08:44.498Z,11.43
2022-08-17T07:09:46.177Z,13.57
2022-08-17T07:11:00.867Z,11.20
2022-08-17T07:12:11.183Z,12.02
2022-08-17T07:13:25.616Z,9.65
2022-08-17T07:14:58.446Z,10.90
2022-08-17T07:16:24.984Z,13.60
2022-08-17T07:17:47.549Z,10.50
2022-08-17T07:18:54.795Z,11.43
2022-08-17T07:20:08.698Z,15.55
2022-08-17T07:21:29.308Z,12.73
2022-08-17T07:22:50.484Z,18.05
2022-08-17T07:24:47.257Z,15.65
2022-08-17T07:25:50.414Z,9.80
2022-08-17T07:27:10.344Z,10.85
2022-08-17T07:28:13.020Z,14.23
2022-08-17T07:29:18.293Z,19.88
2022-08-17T07:30:30.858Z,15.60
2022-08-17T07:31:38.927Z,15.95
2022-08-17T07:32:51.129Z,13.32
2022-08-17T07:34:07.953Z,16.42
2022-08-17T07:35:31.365Z,16.25
2022-08-17T07:36:42.699Z,15.93
2022-08-17T07:38:05.651Z,18.95
2022-08-17T07:39:28.157Z,15.85
2022-08-17T07:41:02.635Z,16.10
2022-08-17T07:42:05.173Z,14.93
2022-08-17T07:43:23.753Z,15.25
2022-08-17T07:44:25.508Z,13.25
2022-08-17T07:45:45.809Z,15.52
2022-08-17T07:47:12.370Z,13.02
2022-08-17T07:48:20.990Z,14.73
2022-08-17T07:49:46.514Z,14.55
2022-08-17T07:50:50.642Z,17.27
2022-08-17T07:51:52.402Z,12.50
2022-08-17T07:52:54.077Z,12.43
2022-08-17T07:54:13.530Z,13.07
2022-08-17T07:55:31.882Z,12.68
2022-08-17T07:56:34.384Z,13.93
2022-08-17T07:57:36.678Z,12.98
2022-08-17T07:58:38.280Z,11.93
2022-08-17T08:00:01.643Z,13.05
2022-08-17T08:01:10.033Z,11.75
2022-08-17T08:02:15.731Z,7.80
2022-08-17T08:03:27.304Z,9.90
2022-08-17T08:06:03.029Z,9.00
2022-08-17T08:07:32.072Z,9.63
2022-08-17T08:08:42.312Z,9.85
2022-08-17T08:09:59.374Z,8.13
2022-08-17T08:11:15.226Z,11.60
2022-08-17T08:12:42.023Z,10.10
2022-08-17T08:13:45.572Z,8.55
2022-08-17T08:14:56.837Z,7.97
2022-08-17T08:16:24.476Z,7.82
2022-08-17T08:17:47.434Z,11.57
2022-08-17T08:18:55.999Z,10.77
2022-08-17T08:20:00.655Z,5.60
2022-08-17T08:21:31.732Z,10.63
2022-08-17T08:22:42.934Z,9.77
2022-08-17T08:24:06.389Z,8.02
2022-08-17T08:25:21.337Z,8.43
2022-08-17T08:26:46.441Z,8.00
2022-08-17T08:28:11.901Z,8.50
2022-08-17T08:29:29.920Z,10.15
2022-08-17T08:30:38.654Z,8.43
2022-08-17T08:32:01.649Z,7.22
2022-08-17T08:33:21.977Z,7.07
2022-08-17T08:35:02.974Z,7.18
2022-08-17T08:37:12.611Z,7.35
2022-08-17T08:38:26.799Z,16.38
2022-08-17T08:39:38.634Z,10.88
2022-08-17T08:41:05.405Z,9.50
2022-08-17T08:42:19.024Z,10.98
2022-08-17T08:43:50.789Z,8.07
2022-08-17T08:45:20.486Z,7.00
2022-08-17T08:46:47.191Z,9.48
2022-08-17T08:48:07.358Z,8.75
2022-08-17T08:50:02.611Z,9.90
2022-08-17T08:51:11.292Z,6.35
2022-08-17T08:52:23.108Z,7.28
2022-08-17T08:53:55.571Z,10.35
2022-08-17T08:55:09.089Z,7.43
2022-08-17T08:56:20.549Z,7.93
2022-08-17T08:57:34.162Z,9.63
2022-08-17T08:58:56.130Z,5.60
2022-08-17T09:00:23.909Z,5.72
2022-08-17T09:01:36.713Z,9.00
2022-08-17T09:02:53.524Z,8.18
2022-08-17T09:04:21.433Z,7.55
2022-08-17T09:05:44.505Z,11.85
2022-08-17T09:07:05.309Z,5.95
2022-08-17T09:08:16.545Z,8.30
2022-08-17T09:09:35.546Z,8.48
2022-08-17T09:11:02.419Z,10.30
2022-08-17T09:12:21.320Z,8.93
2022-08-17T09:13:46.115Z,9.88
2022-08-17T09:15:18.128Z,8.70
2022-08-17T09:16:43.106Z,8.10
2022-08-17T09:18:59.820Z,13.07
2022-08-17T09:19:34.468Z,8.43
2022-08-17T09:20:49.604Z,12.38
2022-08-17T09:21:55.693Z,10.90
2022-08-17T09:23:08.826Z,11.80
2022-08-17T09:24:46.535Z,10.40
2022-08-17T09:26:02.902Z,14.70
2022-08-17T09:27:14.222Z,12.23
2022-08-17T09:28:20.422Z,10.38
2022-08-17T09:29:25.513Z,13.38
2022-08-17T09:30:36.348Z,10.88
2022-08-17T09:31:49.479Z,10.73
2022-08-17T09:32:58.853Z,13.65
2022-08-17T09:34:16.589Z,12.73
2022-08-17T09:35:39.445Z,10.55
2022-08-17T09:36:56.212Z,9.52
2022-08-17T09:38:04.277Z,9.15
2022-08-17T09:39:35.123Z,9.98
2022-08-17T09:41:29.426Z,10.85
2022-08-17T09:42:40.062Z,11.90
2022-08-17T09:43:51.493Z,11.73
2022-08-17T09:45:26.587Z,12.90
2022-08-17T09:46:36.047Z,14.80
2022-08-17T09:47:48.380Z,14.25
2022-08-17T09:49:01.866Z,12.73
2022-08-17T09:50:13.455Z,11.43
2022-08-17T09:51:14.957Z,13.13
2022-08-17T09:52:29.400Z,12.13
2022-08-17T09:53:32.104Z,11.00
2022-08-17T09:54:40.345Z,10.43
2022-08-17T09:55:54.733Z,10.23
2022-08-17T09:57:29.369Z,9.93
2022-08-17T09:58:56.423Z,12.65
2022-08-17T10:00:16.057Z,9.93
2022-08-17T10:01:23.834Z,12.20
2022-08-17T10:03:00.848Z,12.35
2022-08-17T10:04:22.101Z,10.20
2022-08-17T10:05:39.721Z,8.32
2022-08-17T10:06:58.974Z,10.20
2022-08-17T10:08:09.574Z,8.35
2022-08-17T10:09:21.108Z,6.60
2022-08-17T10:10:32.710Z,8.55
2022-08-17T10:12:17.438Z,8.20
2022-08-17T10:13:39.791Z,14.70
2022-08-17T10:15:11.759Z,7.00
2022-08-17T10:16:38.317Z,9.60
2022-08-17T10:17:45.355Z,9.00
2022-08-17T10:18:52.904Z,10.77
2022-08-17T10:20:24.679Z,6.32
2022-08-17T10:21:45.319Z,8.38
2022-08-17T10:23:21.635Z,6.68
2022-08-17T10:25:01.985Z,7.65
2022-08-17T10:26:18.854Z,10.73
2022-08-17T10:27:25.011Z,9.82
2022-08-17T10:28:33.310Z,7.93
2022-08-17T10:30:04.547Z,4.78
2022-08-17T10:33:00.387Z,9.55
2022-08-17T10:34:13.761Z,7.32
2022-08-17T10:35:26.031Z,9.02
2022-08-17T10:36:39.511Z,8.32
2022-08-17T10:38:09.098Z,6.95
2022-08-17T10:39:26.409Z,6.38
2022-08-17T10:40:33.980Z,7.50
2022-08-17T10:41:45.372Z,8.50
2022-08-17T10:43:11.843Z,8.30
2022-08-17T10:44:38.330Z,6.57
2022-08-17T10:46:10.469Z,7.65
2022-08-17T10:47:55.610Z,8.77
2022-08-17T10:49:17.069Z,8.23
2022-08-17T10:50:43.299Z,5.20
2022-08-17T10:51:48.039Z,9.70
2022-08-17T10:52:50.108Z,8.32
2022-08-17T10:53:52.363Z,6.30
2022-08-17T10:54:57.999Z,7.30
2022-08-17T10:56:24.648Z,7.47
2022-08-17T10:57:29.315Z,8.50
2022-08-17T10:58:45.530Z,6.32
2022-08-17T10:59:50.770Z,6.10
2022-08-17T11:00:53.331Z,8.45
2022-08-17T11:02:04.610Z,8.15
2022-08-17T11:03:19.686Z,4.47
2022-08-17T11:05:00.101Z,7.22
2022-08-17T11:06:16.845Z,5.63
2022-08-17T11:07:41.116Z,5.88
2022-08-17T11:08:59.929Z,7.75
2022-08-17T11:10:01.468Z,4.60
2022-08-17T11:11:25.735Z,3.72
2022-08-17T11:12:54.503Z,5.57
2022-08-17T11:13:59.272Z,6.03
2022-08-17T11:15:03.930Z,4.45
2022-08-17T11:16:23.974Z,4.88
2022-08-17T11:17:41.444Z,4.88
2022-08-17T11:18:58.314Z,10.05
2022-08-17T11:20:32.444Z,10.45
2022-08-17T11:21:55.509Z,5.78
2022-08-17T11:23:28.628Z,8.95
2022-08-17T11:24:44.651Z,7.47
2022-08-17T11:25:56.728Z,7.13
2022-08-17T11:27:22.041Z,7.40
2022-08-17T11:28:34.634Z,6.85
2022-08-17T11:29:50.650Z,5.95
2022-08-17T11:31:44.097Z,7.55
2022-08-17T11:32:54.658Z,5.70
2022-08-17T11:34:04.514Z,5.60
2022-08-17T11:35:15.044Z,6.13
2022-08-17T11:36:34.914Z,9.27
2022-08-17T11:37:59.048Z,7.78
2022-08-17T11:39:19.598Z,8.00
2022-08-17T11:40:30.270Z,6.80
2022-08-17T11:41:55.062Z,4.38
2022-08-17T11:43:33.638Z,7.72
2022-08-17T11:44:55.839Z,6.95
2022-08-17T11:46:03.609Z,5.70
2022-08-17T11:47:33.868Z,6.30
2022-08-17T11:49:02.117Z,5.63
2022-08-17T11:50:58.958Z,7.60
2022-08-17T11:52:01.194Z,8.15
2022-08-17T11:53:03.940Z,8.23
2022-08-17T11:55:35.807Z,6.38
2022-08-17T11:56:43.482Z,7.25
2022-08-17T11:57:55.568Z,6.30
2022-08-17T11:58:58.670Z,5.10
2022-08-17T12:00:11.954Z,4.22
2022-08-17T12:01:56.729Z,4.65
2022-08-17T12:03:22.600Z,6.35
2022-08-17T12:04:33.413Z,8.00
2022-08-17T12:05:35.284Z,6.65
2022-08-17T12:06:52.239Z,5.85
2022-08-17T12:08:19.733Z,5.72
2022-08-17T12:09:26.394Z,7.38
2022-08-17T12:10:34.347Z,5.53
2022-08-17T12:12:14.502Z,7.63
2022-08-17T12:13:18.876Z,5.38
2022-08-17T12:14:44.971Z,6.43
2022-08-17T12:15:52.785Z,4.03
2022-08-17T12:17:06.701Z,6.43
2022-08-17T12:18:18.107Z,7.88
2022-08-17T12:19:21.727Z,5.78
2022-08-17T12:20:34.678Z,9.30
2022-08-17T12:21:53.853Z,6.90
2022-08-17T12:23:01.052Z,10.07
2022-08-17T12:24:13.316Z,7.80
2022-08-17T12:25:22.651Z,7.85
2022-08-17T12:26:31.593Z,6.35
2022-08-17T12:27:54.826Z,5.97
2022-08-17T12:29:06.436Z,8.48
2022-08-17T12:30:13.564Z,7.15
2022-08-17T12:31:24.655Z,9.60
2022-08-17T12:32:33.439Z,12.43
2022-08-17T12:33:37.370Z,6.68
2022-08-17T12:34:41.768Z,6.43
2022-08-17T12:35:45.107Z,6.78
2022-08-17T12:36:50.374Z,8.63
2022-08-17T12:37:52.164Z,9.85
2022-08-17T12:39:14.581Z,6.00
2022-08-17T12:40:27.535Z,8.38
2022-08-17T12:41:36.178Z,7.63
2022-08-17T12:42:40.401Z,4.60
2022-08-17T12:43:42.071Z,5.60
2022-08-17T12:44:50.480Z,5.43
2022-08-17T12:45:59.552Z,6.60
2022-08-17T12:47:20.973Z,8.38
2022-08-17T12:48:27.430Z,6.90
2022-08-17T12:49:30.971Z,4.45
2022-08-17T12:50:33.056Z,7.07
2022-08-17T12:51:34.757Z,8.23
2022-08-17T12:52:40.369Z,4.75
2022-08-17T12:53:53.998Z,5.90
2022-08-17T12:55:11.613Z,5.68
2022-08-17T12:56:13.503Z,5.65
2022-08-17T12:57:33.692Z,6.00
2022-08-17T12:58:45.366Z,4.65
2022-08-17T12:59:53.328Z,6.13
2022-08-17T13:01:09.256Z,6.15
2022-08-17T13:02:21.839Z,8.90
2022-08-17T13:03:26.490Z,11.10
2022-08-17T13:04:29.753Z,5.13
2022-08-17T13:05:43.781Z,6.00
2022-08-17T13:06:49.706Z,4.53
2022-08-17T13:07:53.375Z,8.15
2022-08-17T13:08:54.966Z,5.88
2022-08-17T13:09:56.694Z,7.05
2022-08-17T13:11:05.782Z,4.43
2022-08-17T13:12:08.189Z,5.30
2022-08-17T13:13:31.330Z,4.68
2022-08-17T13:14:33.365Z,6.30
2022-08-17T13:15:44.538Z,4.60
2022-08-17T13:17:00.021Z,5.70
2022-08-17T13:18:10.049Z,7.28
2022-08-17T13:19:39.753Z,4.53
2022-08-17T13:20:53.418Z,4.97
2022-08-17T13:21:58.789Z,4.55
2022-08-17T13:23:11.461Z,5.40
2022-08-17T13:24:21.115Z,5.38
2022-08-17T13:25:23.741Z,4.90
2022-08-17T13:26:32.623Z,6.60
2022-08-17T13:27:34.533Z,6.00
2022-08-17T13:28:37.507Z,7.28
2022-08-17T13:29:51.389Z,4.30
2022-08-17T13:31:30.152Z,4.30
2022-08-17T13:32:33.457Z,6.03
2022-08-17T13:33:44.608Z,5.10
2022-08-17T13:35:11.998Z,4.05
2022-08-17T13:36:30.166Z,5.28
2022-08-17T13:37:34.743Z,4.00
2022-08-17T13:38:45.551Z,3.80
2022-08-17T13:39:47.276Z,5.65
2022-08-17T13:40:53.178Z,4.63
2022-08-17T13:41:56.129Z,7.20
2022-08-17T13:42:58.636Z,3.85
2022-08-17T13:44:00.852Z,5.80
2022-08-17T13:45:32.317Z,4.95
2022-08-17T13:46:31.148Z,4.97
2022-08-17T13:47:33.267Z,4.35
2022-08-17T13:48:35.196Z,6.88
2022-08-17T13:49:41.983Z,5.57
2022-08-17T13:50:56.602Z,6.05
2022-08-17T13:51:58.487Z,5.40
2022-08-17T13:53:00.307Z,6.50
2022-08-17T13:54:05.663Z,5.10
2022-08-17T13:55:20.303Z,5.15
2022-08-17T13:56:38.056Z,5.15
2022-08-17T13:57:46.110Z,3.58
2022-08-17T13:59:54.300Z,5.53
2022-08-17T14:00:53.769Z,5.50
2022-08-17T14:01:56.321Z,4.38
2022-08-17T14:02:59.613Z,6.68
2022-08-17T14:04:06.831Z,5.18
2022-08-17T14:05:08.419Z,5.45
2022-08-17T14:06:12.636Z,4.53
2022-08-17T14:07:40.183Z,4.90
2022-08-17T14:08:41.789Z,5.90
2022-08-17T14:10:07.413Z,5.57
2022-08-17T14:11:09.104Z,7.05
2022-08-17T14:12:13.188Z,4.30
2022-08-17T14:13:15.399Z,6.38
2022-08-17T14:14:17.823Z,4.45
2022-08-17T14:15:22.593Z,5.45
2022-08-17T14:16:24.248Z,4.88
2022-08-17T14:17:28.799Z,5.50
2022-08-17T14:18:55.224Z,4.00
2022-08-17T14:19:52.670Z,4.82
2022-08-17T14:20:56.736Z,4.80
2022-08-17T14:21:59.064Z,6.00
2022-08-17T14:23:00.746Z,8.18
2022-08-17T14:24:02.444Z,4.88
2022-08-17T14:25:05.037Z,5.20
2022-08-17T14:26:10.673Z,4.95
2022-08-17T14:27:12.414Z,4.70
2022-08-17T14:28:14.102Z,5.82
2022-08-17T14:29:15.780Z,7.18
2022-08-17T14:30:18.192Z,7.60
2022-08-17T14:31:20.614Z,4.68
2022-08-17T14:32:26.674Z,4.90
2022-08-17T14:33:29.030Z,6.60
2022-08-17T14:34:30.794Z,6.35
2022-08-17T14:35:32.451Z,6.40
2022-08-17T14:36:34.309Z,4.18
2022-08-17T14:37:36.542Z,7.07
2022-08-17T14:38:38.233Z,4.40
2022-08-17T14:39:40.147Z,8.60
2022-08-17T14:40:43.074Z,5.85
2022-08-17T14:41:44.944Z,5.97
2022-08-17T14:42:47.235Z,5.43
2022-08-17T14:43:49.570Z,4.70
2022-08-17T14:44:54.886Z,6.15
2022-08-17T14:45:56.475Z,4.57
2022-08-17T14:46:58.144Z,5.38
2022-08-17T14:48:05.699Z,7.35
2022-08-17T14:49:09.227Z,5.72
2022-08-17T14:50:19.556Z,4.90
2022-08-17T14:51:22.306Z,7.22
2022-08-17T14:52:24.119Z,4.13
2022-08-17T14:53:25.769Z,6.70
2022-08-17T14:54:33.312Z,5.38
2022-08-17T14:55:39.799Z,5.10
2022-08-17T14:56:41.546Z,5.43
2022-08-17T14:57:46.970Z,5.90
2022-08-17T14:58:49.151Z,7.18
2022-08-17T14:59:54.499Z,5.72
2022-08-17T15:00:57.648Z,6.00
2022-08-17T15:02:00.572Z,4.88
2022-08-17T15:03:02.642Z,4.00
2022-08-17T15:04:04.418Z,4.38
2022-08-17T15:05:07.170Z,4.25
2022-08-17T15:06:11.203Z,5.43
2022-08-17T15:07:15.246Z,4.22
2022-08-17T15:08:17.470Z,6.30
2022-08-17T15:09:19.064Z,9.60
2022-08-17T15:10:21.546Z,4.75
2022-08-17T15:11:23.235Z,5.50
2022-08-17T15:12:28.626Z,8.52
2022-08-17T15:13:33.616Z,7.72
2022-08-17T15:14:36.451Z,7.93
2022-08-17T15:15:38.018Z,5.32
2022-08-17T15:16:39.595Z,7.57
2022-08-17T15:17:54.960Z,6.43
2022-08-17T15:18:56.680Z,6.28
2022-08-17T15:19:58.295Z,6.07
2022-08-17T15:21:00.399Z,5.53
2022-08-17T15:22:02.074Z,5.15
2022-08-17T15:23:03.795Z,4.35
2022-08-17T15:24:06.160Z,4.10
2022-08-17T15:25:10.576Z,6.00
2022-08-17T15:26:12.327Z,5.05
2022-08-17T15:27:13.915Z,4.05
2022-08-17T15:28:23.044Z,5.35
2022-08-17T15:29:24.636Z,8.40
2022-08-17T15:30:27.222Z,7.25
2022-08-17T15:31:31.869Z,6.80
2022-08-17T15:32:38.130Z,6.32
2022-08-17T15:33:39.892Z,6.40
2022-08-17T15:34:41.494Z,8.90